Hlavní strana
METAR-TAF:

METAR-TAF

Letiště :

Bergamo, Itálie

Letiště Orio al Serio

zeměpisná šířka: 45-40N, zeměpisná délka: 009-42E, výška: 238 m

Aktuální stav počasí

Zpráva byla vytvořena před 20 hodinami a 41 minutami, v 14:50 UTC
Jižní vítr 6 kt, proměnlivý mezi jihovýchodním a západojihozápadním
Teplota 7°C
Vlhkost vzduchu 57%
Tlak 1007 hPa
Viditelnost: 8000 m
Polojasno ve výšce 4000 ft

METAR: LIME 201450Z 17006KT 140V250 8000 SCT040 07/M01 Q1007 NOSIG

Čas: 12:31 (11:31 UTC)

Předpověď počasí

Zpráva byla vytvořena před 31 minutami, v 11:00 UTC
Předpověď platná od 20 v 12 UTC do 21 v 12 UTC
vítr z různých směrů 5 kt
Viditelnost: 7000 m
Polojasno ve výšce 5000 ft

TAF: LIME 201100Z 2012/2112 VRB05KT 7000 SCT050

Stav a předpovědi počasí z více než 4 000 letišť (zprávy METAR a TAF).

Červené a žluté tečky na mapě představují dostupné meteorologické stanice.

Když kurzor umístíte na tečku, zobrazí se název stanice.

Pak kliknutím zobrazíte stav a předpověď počasí.

Chcete-li změnit mapu, kliknutím na zelené tlačítko se znaménkem +mapu přiblížíte, kliknutím na zelené tlačítko se znaménkem – mapu oddálíte a kliknutím na zelené šipky přejdete na sousední mapy.


METAR-TAF: